createdAt,value
2019-01-31T00:00:24.386Z,97018.92
2019-01-31T00:03:22.442Z,97012.45
2019-01-31T00:06:23.420Z,97016.14
2019-01-31T00:09:30.401Z,97009.86
2019-01-31T00:12:33.882Z,97012.34
2019-01-31T00:15:22.580Z,97014.92
2019-01-31T00:18:05.360Z,97015.03
2019-01-31T00:20:48.351Z,97009.47
2019-01-31T00:24:07.025Z,97001.70
2019-01-31T00:27:17.893Z,97004.77
2019-01-31T00:30:52.247Z,97003.80
2019-01-31T00:33:35.650Z,97003.94
2019-01-31T00:37:00.254Z,97003.00
2019-01-31T00:40:01.037Z,97014.26
2019-01-31T00:43:18.206Z,97009.23
2019-01-31T00:46:31.558Z,97007.08
2019-01-31T00:49:43.840Z,97007.98
2019-01-31T00:52:42.654Z,97008.34
2019-01-31T00:55:39.104Z,97011.67
2019-01-31T00:58:34.681Z,97018.03
2019-01-31T01:01:41.775Z,97017.12
2019-01-31T01:04:51.685Z,97013.05
2019-01-31T01:08:19.090Z,97025.78
2019-01-31T01:11:27.619Z,97020.45
2019-01-31T01:14:31.399Z,97027.12
2019-01-31T01:17:23.192Z,97024.84
2019-01-31T01:20:20.839Z,97020.34
2019-01-31T01:23:33.044Z,97024.88
2019-01-31T01:26:36.723Z,97019.12
2019-01-31T01:29:57.387Z,97026.61
2019-01-31T01:33:06.175Z,97017.66
2019-01-31T01:36:20.721Z,97022.09
2019-01-31T01:39:35.490Z,97014.45
2019-01-31T01:42:45.459Z,97017.30
2019-01-31T01:45:54.147Z,97011.94
2019-01-31T01:49:09.165Z,97013.87
2019-01-31T01:52:19.120Z,97016.61
2019-01-31T01:55:13.222Z,97009.12
2019-01-31T01:57:53.543Z,97009.23
2019-01-31T02:00:50.776Z,97007.36
2019-01-31T02:03:54.733Z,97008.42
2019-01-31T02:06:50.980Z,97012.42
2019-01-31T02:09:50.487Z,97008.02
2019-01-31T02:12:58.446Z,97015.98
2019-01-31T02:16:01.194Z,97023.08
2019-01-31T02:18:47.951Z,97013.52
2019-01-31T02:21:49.989Z,97019.28
2019-01-31T02:24:34.025Z,97020.45
2019-01-31T02:27:55.117Z,97016.45
2019-01-31T02:31:04.349Z,97011.28
2019-01-31T02:34:15.078Z,97008.42
2019-01-31T02:37:22.338Z,97005.05
2019-01-31T02:40:21.305Z,97005.59
2019-01-31T02:43:20.716Z,96998.37
2019-01-31T02:46:25.043Z,97005.27
2019-01-31T02:49:08.525Z,97006.37
2019-01-31T02:52:19.275Z,97001.59
2019-01-31T02:55:29.201Z,96997.87
2019-01-31T02:58:32.283Z,97001.44
2019-01-31T03:01:31.916Z,96995.36
2019-01-31T03:04:48.804Z,96991.91
2019-01-31T03:08:10.340Z,96987.36
2019-01-31T03:11:40.662Z,96990.94
2019-01-31T03:14:36.812Z,96990.14
2019-01-31T03:17:44.756Z,96992.19
2019-01-31T03:20:32.817Z,96993.01
2019-01-31T03:23:27.832Z,96995.47
2019-01-31T03:26:40.017Z,96992.80
2019-01-31T03:30:18.309Z,96999.91
2019-01-31T03:33:23.158Z,96995.67
2019-01-31T03:36:33.723Z,96998.14
2019-01-31T03:39:39.173Z,97002.09
2019-01-31T03:42:19.153Z,96992.02
2019-01-31T03:45:44.029Z,96996.61
2019-01-31T03:48:49.720Z,96997.44
2019-01-31T03:51:59.606Z,97008.92
2019-01-31T03:55:01.900Z,97002.77
2019-01-31T03:58:08.814Z,96997.95
2019-01-31T04:00:58.717Z,96999.20
2019-01-31T04:03:34.872Z,97002.27
2019-01-31T04:06:23.848Z,97000.84
2019-01-31T04:08:55.334Z,97000.84
2019-01-31T04:11:27.067Z,97009.28
2019-01-31T04:13:58.469Z,97008.33
2019-01-31T04:16:30.320Z,97008.45
2019-01-31T04:19:01.895Z,97014.03
2019-01-31T04:21:33.742Z,97012.34
2019-01-31T04:24:05.421Z,97009.70
2019-01-31T04:26:36.974Z,97013.27
2019-01-31T04:29:08.797Z,97005.39
2019-01-31T04:31:41.026Z,97009.12
2019-01-31T04:34:12.886Z,97004.25
2019-01-31T04:36:46.799Z,97006.57
2019-01-31T04:39:18.956Z,97004.70
2019-01-31T04:41:53.813Z,97009.59
2019-01-31T04:44:25.109Z,97004.41
2019-01-31T04:46:56.449Z,97004.84
2019-01-31T04:49:28.456Z,97005.59
2019-01-31T04:52:01.706Z,97004.27
2019-01-31T04:54:33.778Z,97009.91
2019-01-31T04:57:05.494Z,97008.89
2019-01-31T04:59:37.451Z,97008.50
2019-01-31T05:02:09.149Z,97010.03
2019-01-31T05:04:42.985Z,97014.03
2019-01-31T05:07:14.591Z,97008.81
2019-01-31T05:09:46.759Z,97014.18
2019-01-31T05:12:18.008Z,97022.61
2019-01-31T05:14:50.068Z,97020.53
2019-01-31T05:17:22.623Z,97018.13
2019-01-31T05:19:55.146Z,97022.30
2019-01-31T05:22:29.792Z,97027.08
2019-01-31T05:25:03.381Z,97028.34
2019-01-31T05:27:35.385Z,97015.91
2019-01-31T05:30:07.313Z,97020.46
2019-01-31T05:32:38.470Z,97014.81
2019-01-31T05:35:10.189Z,97012.73
2019-01-31T05:37:41.570Z,97008.97
2019-01-31T05:40:14.782Z,97016.03
2019-01-31T05:42:45.975Z,97015.05
2019-01-31T05:45:17.433Z,97016.27
2019-01-31T05:47:48.760Z,97021.09
2019-01-31T05:50:20.106Z,97018.94
2019-01-31T05:52:51.533Z,97014.34
2019-01-31T05:55:23.051Z,97017.72
2019-01-31T05:57:57.916Z,97019.37
2019-01-31T06:00:32.347Z,97020.11
2019-01-31T06:03:04.041Z,97022.50
2019-01-31T06:05:35.305Z,97021.17
2019-01-31T06:08:06.798Z,97020.97
2019-01-31T06:10:39.605Z,97027.33
2019-01-31T06:13:10.710Z,97018.08
2019-01-31T06:15:42.760Z,97029.09
2019-01-31T06:18:15.531Z,97033.59
2019-01-31T06:20:46.655Z,97033.52
2019-01-31T06:23:17.737Z,97036.19
2019-01-31T06:25:54.598Z,97042.34
2019-01-31T06:28:26.962Z,97029.75
2019-01-31T06:30:58.825Z,97031.00
2019-01-31T06:33:33.312Z,97049.59
2019-01-31T06:36:04.783Z,97054.14
2019-01-31T06:38:37.742Z,97046.34
2019-01-31T06:41:18.288Z,97051.67
2019-01-31T06:43:42.403Z,97049.23
2019-01-31T06:46:13.730Z,97052.70
2019-01-31T06:48:46.493Z,97051.91
2019-01-31T06:51:17.462Z,97062.26
2019-01-31T06:53:50.948Z,97068.19
2019-01-31T06:56:25.913Z,97063.70
2019-01-31T06:58:59.261Z,97062.85
2019-01-31T07:01:32.256Z,97065.41
2019-01-31T07:04:07.387Z,97060.66
2019-01-31T07:06:41.310Z,97057.80
2019-01-31T07:09:16.340Z,97057.06
2019-01-31T07:11:49.402Z,97062.82
2019-01-31T07:14:20.919Z,97064.75
2019-01-31T07:16:54.341Z,97062.70
2019-01-31T07:19:28.095Z,97066.25
2019-01-31T07:22:03.547Z,97065.38
2019-01-31T07:24:35.716Z,97063.22
2019-01-31T07:27:08.973Z,97059.89
2019-01-31T07:29:42.087Z,97061.61
2019-01-31T07:32:15.843Z,97062.09
2019-01-31T07:34:47.976Z,97064.72
2019-01-31T07:37:22.117Z,97061.00
2019-01-31T07:39:54.771Z,97054.20
2019-01-31T07:42:27.140Z,97060.95
2019-01-31T07:44:59.223Z,97056.01
2019-01-31T07:47:32.961Z,97055.14
2019-01-31T07:50:10.588Z,97064.48
2019-01-31T07:52:44.518Z,97058.56
2019-01-31T07:55:16.871Z,97059.02
2019-01-31T07:57:48.431Z,97058.20
2019-01-31T08:00:23.909Z,97065.26
2019-01-31T08:02:57.211Z,97056.07
2019-01-31T08:05:28.294Z,97050.88
2019-01-31T08:08:02.594Z,97057.20
2019-01-31T08:10:37.755Z,97057.89
2019-01-31T08:13:08.822Z,97059.24
2019-01-31T08:15:41.371Z,97054.11
2019-01-31T08:18:15.570Z,97057.59
2019-01-31T08:20:47.793Z,97061.33
2019-01-31T08:23:20.379Z,97059.11
2019-01-31T08:25:51.481Z,97062.37
2019-01-31T08:28:26.220Z,97065.34
2019-01-31T08:30:59.310Z,97069.05
2019-01-31T08:33:30.434Z,97069.22
2019-01-31T08:36:01.614Z,97065.49
2019-01-31T08:38:32.918Z,97067.41
2019-01-31T08:41:05.156Z,97073.58
2019-01-31T08:43:37.604Z,97067.34
2019-01-31T08:46:09.293Z,97063.64
2019-01-31T08:48:41.637Z,97074.92
2019-01-31T08:51:12.782Z,97068.75
2019-01-31T08:53:43.857Z,97069.64
2019-01-31T08:56:16.921Z,97073.58
2019-01-31T08:58:51.852Z,97068.31
2019-01-31T09:01:24.752Z,97073.45
2019-01-31T09:03:58.499Z,97072.05
2019-01-31T09:06:31.953Z,97077.45
2019-01-31T09:09:06.189Z,97069.44
2019-01-31T09:11:37.742Z,97068.75
2019-01-31T09:14:09.009Z,97067.72
2019-01-31T09:16:44.809Z,97076.77
2019-01-31T09:19:17.512Z,97062.59
2019-01-31T09:22:11.879Z,97059.92
2019-01-31T09:25:29.468Z,97062.30
2019-01-31T09:28:34.890Z,97066.02
2019-01-31T09:31:43.610Z,97058.87
2019-01-31T09:34:43.756Z,97057.70
2019-01-31T09:37:32.964Z,97060.50
2019-01-31T09:40:51.371Z,97064.95
2019-01-31T09:44:05.191Z,97064.97
2019-01-31T09:46:50.559Z,97064.14
2019-01-31T09:50:06.029Z,97064.45
2019-01-31T09:52:59.770Z,97070.77
2019-01-31T09:56:43.744Z,97060.52
2019-01-31T09:59:32.621Z,97063.41
2019-01-31T10:02:35.525Z,97052.95
2019-01-31T10:05:33.993Z,97062.89
2019-01-31T10:08:48.149Z,97066.46
2019-01-31T10:11:51.229Z,97068.24
2019-01-31T10:14:59.430Z,97063.09
2019-01-31T10:18:23.927Z,97061.63
2019-01-31T10:21:39.289Z,97061.32
2019-01-31T10:24:41.329Z,97068.00
2019-01-31T10:27:49.721Z,97056.78
2019-01-31T10:31:12.940Z,97055.45
2019-01-31T10:34:22.757Z,97052.66
2019-01-31T10:37:36.784Z,97049.00
2019-01-31T10:40:55.497Z,97045.66
2019-01-31T10:43:45.690Z,97053.26
2019-01-31T10:47:04.939Z,97042.94
2019-01-31T10:50:22.755Z,97043.03
2019-01-31T10:53:21.363Z,97046.59
2019-01-31T10:56:52.738Z,97042.58
2019-01-31T11:00:03.012Z,97040.45
2019-01-31T11:03:20.261Z,97033.18
2019-01-31T11:06:30.131Z,97023.25
2019-01-31T11:09:42.539Z,97020.33
2019-01-31T11:13:09.684Z,97018.38
2019-01-31T11:16:18.846Z,97013.94
2019-01-31T11:19:20.508Z,97010.34
2019-01-31T11:22:43.243Z,97012.83
2019-01-31T11:25:53.099Z,97006.74
2019-01-31T11:29:07.899Z,97014.77
2019-01-31T11:32:21.914Z,97002.12
2019-01-31T11:35:50.725Z,96996.20
2019-01-31T11:39:15.820Z,96993.98
2019-01-31T11:41:59.913Z,96989.75
2019-01-31T11:45:24.532Z,96993.88
2019-01-31T11:48:51.773Z,96996.45
2019-01-31T11:52:16.999Z,96991.14
2019-01-31T11:55:10.082Z,96994.91
2019-01-31T11:58:26.511Z,96985.13
2019-01-31T12:01:01.244Z,96993.67
2019-01-31T12:03:35.937Z,96983.63
2019-01-31T12:06:07.455Z,96990.27
2019-01-31T12:08:40.733Z,96999.80
2019-01-31T12:11:11.845Z,96994.91
2019-01-31T12:13:45.517Z,96988.36
2019-01-31T12:16:17.556Z,96996.86
2019-01-31T12:18:48.544Z,96989.45
2019-01-31T12:21:19.965Z,96986.44
2019-01-31T12:23:51.923Z,96987.41
2019-01-31T12:26:25.139Z,96989.64
2019-01-31T12:28:56.118Z,96994.77
2019-01-31T12:31:27.952Z,96988.09
2019-01-31T12:34:00.086Z,96986.48
2019-01-31T12:36:32.750Z,96981.31
2019-01-31T12:39:05.709Z,96986.61
2019-01-31T12:41:36.720Z,96991.57
2019-01-31T12:44:09.197Z,96991.79
2019-01-31T12:46:42.772Z,96985.79
2019-01-31T12:49:16.270Z,96988.92
2019-01-31T12:51:49.260Z,96984.33
2019-01-31T12:54:20.246Z,96985.71
2019-01-31T12:56:52.553Z,96981.75
2019-01-31T12:59:26.356Z,96984.45
2019-01-31T13:02:01.008Z,96980.56
2019-01-31T13:04:40.539Z,96982.39
2019-01-31T13:07:13.470Z,96987.62
2019-01-31T13:09:44.964Z,96984.91
2019-01-31T13:12:20.800Z,96984.04
2019-01-31T13:14:56.682Z,96982.31
2019-01-31T13:17:30.282Z,96984.60
2019-01-31T13:20:01.359Z,96987.74
2019-01-31T13:22:34.798Z,96982.09
2019-01-31T13:25:08.985Z,96986.49
2019-01-31T13:27:41.234Z,96981.16
2019-01-31T13:30:20.117Z,96977.58
2019-01-31T13:33:03.012Z,96980.36
2019-01-31T13:35:34.074Z,96983.73
2019-01-31T13:38:10.057Z,96980.00
2019-01-31T13:40:42.269Z,96982.50
2019-01-31T13:43:13.553Z,96985.33
2019-01-31T13:45:45.772Z,96985.63
2019-01-31T13:48:19.384Z,96990.94
2019-01-31T13:50:54.790Z,96990.18
2019-01-31T13:53:31.036Z,96989.77
2019-01-31T13:56:02.370Z,96985.21
2019-01-31T13:58:35.834Z,96983.31
2019-01-31T14:01:09.167Z,96991.16
2019-01-31T14:03:40.469Z,96991.98
2019-01-31T14:06:13.061Z,96990.00
2019-01-31T14:08:44.773Z,96991.13
2019-01-31T14:11:15.842Z,96993.98
2019-01-31T14:13:50.294Z,97006.47
2019-01-31T14:16:23.038Z,97001.06
2019-01-31T14:18:59.562Z,97003.97
2019-01-31T14:21:34.781Z,96998.11
2019-01-31T14:24:06.906Z,96999.89
2019-01-31T14:26:41.065Z,97010.42
2019-01-31T14:29:17.158Z,97009.47
2019-01-31T14:31:50.166Z,97004.11
2019-01-31T14:34:23.667Z,97005.84
2019-01-31T14:36:54.678Z,97009.50
2019-01-31T14:39:27.938Z,97011.86
2019-01-31T14:41:59.426Z,97012.11
2019-01-31T14:44:31.949Z,97005.94
2019-01-31T14:47:08.287Z,97006.25
2019-01-31T14:49:39.847Z,97011.21
2019-01-31T14:52:16.104Z,97011.74
2019-01-31T14:54:52.604Z,97015.52
2019-01-31T14:57:25.363Z,97017.05
2019-01-31T14:59:56.899Z,97015.77
2019-01-31T15:02:30.516Z,97028.80
2019-01-31T15:05:04.419Z,97025.95
2019-01-31T15:07:36.659Z,97026.71
2019-01-31T15:10:12.294Z,97026.14
2019-01-31T15:12:43.272Z,97032.30
2019-01-31T15:15:17.200Z,97030.20
2019-01-31T15:17:53.002Z,97032.72
2019-01-31T15:20:38.061Z,97035.73
2019-01-31T15:23:07.418Z,97032.80
2019-01-31T15:25:40.831Z,97034.98
2019-01-31T15:28:11.937Z,97033.94
2019-01-31T15:30:43.009Z,97042.28
2019-01-31T15:33:15.112Z,97040.89
2019-01-31T15:35:46.157Z,97045.59
2019-01-31T15:38:18.952Z,97044.56
2019-01-31T15:40:50.533Z,97043.05
2019-01-31T15:43:22.349Z,97048.57
2019-01-31T15:45:54.717Z,97049.46
2019-01-31T15:48:26.185Z,97055.55
2019-01-31T15:50:58.029Z,97061.02
2019-01-31T15:53:29.387Z,97060.49
2019-01-31T15:56:03.066Z,97061.91
2019-01-31T15:58:34.458Z,97055.37
2019-01-31T16:01:07.590Z,97060.13
2019-01-31T16:03:38.906Z,97056.69
2019-01-31T16:06:10.181Z,97060.44
2019-01-31T16:08:41.384Z,97068.59
2019-01-31T16:11:12.581Z,97073.70
2019-01-31T16:13:43.929Z,97068.72
2019-01-31T16:16:15.818Z,97079.40
2019-01-31T16:18:46.990Z,97073.55
2019-01-31T16:21:19.704Z,97065.51
2019-01-31T16:23:50.773Z,97071.59
2019-01-31T16:26:21.992Z,97069.94
2019-01-31T16:28:54.629Z,97069.51
2019-01-31T16:31:25.860Z,97068.81
2019-01-31T16:33:56.965Z,97069.27
2019-01-31T16:36:28.176Z,97072.14
2019-01-31T16:38:59.756Z,97070.92
2019-01-31T16:41:31.063Z,97077.31
2019-01-31T16:44:03.014Z,97072.33
2019-01-31T16:46:36.333Z,97073.44
2019-01-31T16:49:06.920Z,97074.17
2019-01-31T16:51:38.004Z,97072.77
2019-01-31T16:54:09.679Z,97078.95
2019-01-31T16:56:41.108Z,97062.16
2019-01-31T16:59:12.430Z,97072.23
2019-01-31T17:01:43.651Z,97073.48
2019-01-31T17:04:16.511Z,97072.66
2019-01-31T17:06:48.091Z,97076.27
2019-01-31T17:09:19.261Z,97079.67
2019-01-31T17:11:50.378Z,97072.10
2019-01-31T17:14:21.471Z,97078.09
2019-01-31T17:16:54.187Z,97074.80
2019-01-31T17:19:25.337Z,97075.22
2019-01-31T17:21:56.526Z,97082.45
2019-01-31T17:24:28.164Z,97084.22
2019-01-31T17:26:59.414Z,97088.46
2019-01-31T17:29:30.591Z,97090.73
2019-01-31T17:32:01.931Z,97088.80
2019-01-31T17:34:33.031Z,97094.74
2019-01-31T17:37:04.257Z,97094.66
2019-01-31T17:39:35.535Z,97092.83
2019-01-31T17:42:06.873Z,97092.97
2019-01-31T17:44:38.093Z,97096.56
2019-01-31T17:47:09.212Z,97094.09
2019-01-31T17:49:40.471Z,97105.48
2019-01-31T17:52:12.003Z,97102.13
2019-01-31T17:54:43.132Z,97100.70
2019-01-31T17:57:14.385Z,97097.03
2019-01-31T17:59:45.660Z,97093.23
2019-01-31T18:02:19.089Z,97096.53
2019-01-31T18:04:50.503Z,97100.44
2019-01-31T18:07:22.795Z,97100.85
2019-01-31T18:09:54.144Z,97098.39
2019-01-31T18:12:25.523Z,97095.44
2019-01-31T18:14:57.754Z,97098.83
2019-01-31T18:17:30.166Z,97098.73
2019-01-31T18:20:04.042Z,97099.75
2019-01-31T18:22:37.818Z,97103.14
2019-01-31T18:25:10.556Z,97101.72
2019-01-31T18:27:42.598Z,97100.39
2019-01-31T18:30:20.305Z,97103.27
2019-01-31T18:32:52.044Z,97106.12
2019-01-31T18:35:23.649Z,97110.62
2019-01-31T18:37:55.422Z,97104.69
2019-01-31T18:40:28.736Z,97096.70
2019-01-31T18:43:00.017Z,97101.42
2019-01-31T18:45:32.233Z,97097.94
2019-01-31T18:48:03.767Z,97102.05
2019-01-31T18:50:37.999Z,97111.67
2019-01-31T18:53:09.289Z,97114.52
2019-01-31T18:55:40.876Z,97109.60
2019-01-31T18:58:11.958Z,97114.20
2019-01-31T19:00:50.730Z,97111.25
2019-01-31T19:03:23.999Z,97107.34
2019-01-31T19:05:55.283Z,97112.16
2019-01-31T19:08:26.426Z,97113.17
2019-01-31T19:10:57.768Z,97116.98
2019-01-31T19:13:28.857Z,97111.96
2019-01-31T19:16:05.141Z,97112.47
2019-01-31T19:18:33.647Z,97111.03
2019-01-31T19:21:05.210Z,97109.10
2019-01-31T19:23:36.646Z,97112.03
2019-01-31T19:26:07.937Z,97109.59
2019-01-31T19:28:39.408Z,97104.89
2019-01-31T19:31:10.642Z,97112.34
2019-01-31T19:33:41.867Z,97113.88
2019-01-31T19:36:12.966Z,97114.79
2019-01-31T19:38:44.228Z,97113.46
2019-01-31T19:41:15.415Z,97111.20
2019-01-31T19:43:46.877Z,97113.98
2019-01-31T19:46:18.516Z,97115.49
2019-01-31T19:48:49.712Z,97119.05
2019-01-31T19:51:20.849Z,97114.46
2019-01-31T19:53:51.994Z,97123.98
2019-01-31T19:56:23.283Z,97129.98
2019-01-31T19:58:54.915Z,97133.87
2019-01-31T20:01:27.712Z,97127.33
2019-01-31T20:03:58.721Z,97133.66
2019-01-31T20:06:29.887Z,97131.39
2019-01-31T20:09:01.015Z,97127.88
2019-01-31T20:11:33.389Z,97129.86
2019-01-31T20:14:04.536Z,97134.85
2019-01-31T20:16:36.126Z,97133.20
2019-01-31T20:19:08.114Z,97132.09
2019-01-31T20:21:39.750Z,97139.73
2019-01-31T20:24:10.811Z,97132.16
2019-01-31T20:26:41.991Z,97125.73
2019-01-31T20:29:13.095Z,97130.94
2019-01-31T20:31:45.245Z,97132.16
2019-01-31T20:34:16.319Z,97133.88
2019-01-31T20:36:47.454Z,97131.91
2019-01-31T20:39:18.816Z,97135.00
2019-01-31T20:41:54.166Z,97133.02
2019-01-31T20:44:22.688Z,97138.13
2019-01-31T20:46:53.833Z,97139.12
2019-01-31T20:49:24.925Z,97136.06
2019-01-31T20:51:56.122Z,97132.27
2019-01-31T20:54:27.178Z,97123.30
2019-01-31T20:56:58.312Z,97123.69
2019-01-31T20:59:29.372Z,97117.44
2019-01-31T21:02:00.822Z,97121.92
2019-01-31T21:04:32.912Z,97111.91
2019-01-31T21:07:04.119Z,97114.75
2019-01-31T21:09:35.295Z,97125.37
2019-01-31T21:12:06.972Z,97121.48
2019-01-31T21:14:38.066Z,97123.50
2019-01-31T21:17:09.328Z,97123.06
2019-01-31T21:19:40.692Z,97124.92
2019-01-31T21:22:11.815Z,97121.33
2019-01-31T21:24:42.991Z,97114.86
2019-01-31T21:27:14.077Z,97124.27
2019-01-31T21:29:45.240Z,97117.19
2019-01-31T21:32:16.409Z,97124.66
2019-01-31T21:34:47.518Z,97122.06
2019-01-31T21:37:18.582Z,97116.14
2019-01-31T21:39:49.908Z,97116.53
2019-01-31T21:42:20.971Z,97115.20
2019-01-31T21:44:53.481Z,97118.57
2019-01-31T21:47:24.612Z,97120.58
2019-01-31T21:49:55.851Z,97131.52
2019-01-31T21:52:27.026Z,97123.56
2019-01-31T21:54:58.184Z,97129.87
2019-01-31T21:57:29.364Z,97133.67
2019-01-31T22:00:00.459Z,97129.19
2019-01-31T22:02:31.787Z,97135.50
2019-01-31T22:05:02.919Z,97138.87
2019-01-31T22:07:35.207Z,97137.66
2019-01-31T22:10:07.805Z,97140.48
2019-01-31T22:18:17.932Z,97152.36
2019-01-31T22:20:49.804Z,97144.63
2019-01-31T22:23:21.154Z,97147.61
2019-01-31T22:25:52.379Z,97152.92
2019-01-31T22:28:24.219Z,97154.86
2019-01-31T22:30:55.507Z,97153.97
2019-01-31T22:33:26.989Z,97156.13
2019-01-31T22:35:59.518Z,97152.94
2019-01-31T22:38:30.814Z,97150.10
2019-01-31T22:41:02.060Z,97151.93
2019-01-31T22:43:33.352Z,97147.95
2019-01-31T22:46:04.674Z,97145.30
2019-01-31T22:48:35.816Z,97143.34
2019-01-31T22:51:07.111Z,97152.32
2019-01-31T22:53:39.135Z,97149.05
2019-01-31T22:56:10.891Z,97149.23
2019-01-31T22:58:42.423Z,97142.98
2019-01-31T23:02:03.289Z,97150.33
2019-01-31T23:04:34.483Z,97152.66
2019-01-31T23:07:06.256Z,97149.09
2019-01-31T23:09:38.997Z,97150.09
2019-01-31T23:12:10.309Z,97152.13
2019-01-31T23:14:42.938Z,97153.97
2019-01-31T23:17:13.931Z,97146.39
2019-01-31T23:19:45.313Z,97139.64
2019-01-31T23:22:16.703Z,97135.84
2019-01-31T23:24:48.135Z,97135.55
2019-01-31T23:27:19.455Z,97138.05
2019-01-31T23:29:51.620Z,97128.47
2019-01-31T23:32:23.522Z,97131.01
2019-01-31T23:34:54.728Z,97131.39
2019-01-31T23:37:26.529Z,97122.28
2019-01-31T23:39:59.283Z,97124.00
2019-01-31T23:42:30.573Z,97129.01
2019-01-31T23:45:01.957Z,97125.92
2019-01-31T23:47:33.299Z,97127.42
2019-01-31T23:50:07.320Z,97124.86
2019-01-31T23:52:38.872Z,97126.56
2019-01-31T23:55:10.196Z,97128.89
2019-01-31T23:57:41.356Z,97123.47
